createdAt,value
2022-09-24T00:01:32.027Z,11.40
2022-09-24T00:04:05.101Z,11.30
2022-09-24T00:06:36.678Z,11.40
2022-09-24T00:09:04.614Z,11.40
2022-09-24T00:11:32.248Z,11.40
2022-09-24T00:14:00.183Z,11.40
2022-09-24T00:16:31.534Z,11.40
2022-09-24T00:18:59.217Z,11.40
2022-09-24T00:21:29.705Z,11.40
2022-09-24T00:23:59.229Z,11.40
2022-09-24T00:26:45.419Z,11.40
2022-09-24T00:29:15.802Z,11.40
2022-09-24T00:31:43.275Z,11.40
2022-09-24T00:34:10.834Z,11.40
2022-09-24T00:36:38.835Z,11.40
2022-09-24T00:39:06.914Z,11.30
2022-09-24T00:41:36.839Z,11.30
2022-09-24T00:44:42.538Z,11.30
2022-09-24T00:47:21.689Z,11.40
2022-09-24T00:49:50.365Z,11.40
2022-09-24T00:52:18.329Z,11.40
2022-09-24T00:54:46.342Z,11.30
2022-09-24T00:57:14.458Z,11.40
2022-09-24T00:59:43.925Z,11.30
2022-09-24T01:02:12.170Z,11.30
2022-09-24T01:04:39.420Z,11.30
2022-09-24T01:07:06.657Z,11.30
2022-09-24T01:09:34.686Z,11.30
2022-09-24T01:12:18.487Z,11.30
2022-09-24T01:15:36.944Z,11.20
2022-09-24T01:18:22.451Z,11.20
2022-09-24T01:20:52.789Z,11.20
2022-09-24T01:23:50.442Z,11.20
2022-09-24T01:26:28.521Z,11.20
2022-09-24T01:29:17.324Z,11.20
2022-09-24T01:32:12.638Z,11.10
2022-09-24T01:34:47.837Z,11.20
2022-09-24T01:37:18.257Z,11.20
2022-09-24T01:39:47.315Z,11.20
2022-09-24T01:42:15.723Z,11.10
2022-09-24T01:44:44.625Z,11.10
2022-09-24T01:47:23.546Z,11.10
2022-09-24T01:49:53.583Z,11.00
2022-09-24T01:52:26.601Z,11.00
2022-09-24T01:54:57.129Z,11.00
2022-09-24T01:57:30.217Z,11.00
2022-09-24T02:00:02.788Z,11.00
2022-09-24T02:02:45.503Z,11.00
2022-09-24T02:05:31.686Z,11.00
2022-09-24T02:08:08.849Z,11.00
2022-09-24T02:10:56.761Z,11.00
2022-09-24T02:13:26.867Z,10.90
2022-09-24T02:15:58.454Z,10.90
2022-09-24T02:18:33.239Z,10.90
2022-09-24T02:21:04.042Z,10.90
2022-09-24T02:23:33.737Z,10.90
2022-09-24T02:26:04.649Z,10.80
2022-09-24T02:28:34.272Z,10.80
2022-09-24T02:31:22.846Z,10.80
2022-09-24T02:34:10.647Z,10.80
2022-09-24T02:36:41.024Z,10.70
2022-09-24T02:39:08.541Z,10.70
2022-09-24T02:41:36.835Z,10.70
2022-09-24T02:44:04.060Z,10.70
2022-09-24T02:46:31.452Z,10.70
2022-09-24T02:48:58.743Z,10.70
2022-09-24T02:51:26.302Z,10.70
2022-09-24T02:53:53.522Z,10.70
2022-09-24T02:56:20.755Z,10.70
2022-09-24T02:58:47.995Z,10.70
2022-09-24T03:01:15.302Z,10.70
2022-09-24T03:03:42.546Z,10.70
2022-09-24T03:06:11.181Z,10.70
2022-09-24T03:08:38.385Z,10.70
2022-09-24T03:11:05.803Z,10.70
2022-09-24T03:13:33.030Z,10.70
2022-09-24T03:16:00.374Z,10.60
2022-09-24T03:18:27.563Z,10.60
2022-09-24T03:21:04.499Z,10.60
2022-09-24T03:23:31.902Z,10.60
2022-09-24T03:25:59.207Z,10.60
2022-09-24T03:28:26.883Z,10.60
2022-09-24T03:31:00.516Z,10.60
2022-09-24T03:33:44.237Z,10.50
2022-09-24T03:36:17.772Z,10.50
2022-09-24T03:38:46.380Z,10.50
2022-09-24T03:41:14.188Z,10.50
2022-09-24T03:43:41.830Z,10.60
2022-09-24T03:46:11.105Z,10.60
2022-09-24T03:48:40.038Z,10.60
2022-09-24T03:51:11.136Z,10.60
2022-09-24T03:53:38.955Z,10.60
2022-09-24T03:56:07.450Z,10.60
2022-09-24T03:58:39.268Z,10.60
2022-09-24T04:01:07.774Z,10.60
2022-09-24T04:03:36.043Z,10.60
2022-09-24T04:06:04.023Z,10.60
2022-09-24T04:08:31.784Z,10.60
2022-09-24T04:10:59.661Z,10.60
2022-09-24T04:13:26.902Z,10.50
2022-09-24T04:15:55.201Z,10.50
2022-09-24T04:18:22.737Z,10.40
2022-09-24T04:20:50.051Z,10.40
2022-09-24T04:23:17.292Z,10.40
2022-09-24T04:25:44.506Z,10.40
2022-09-24T04:28:12.247Z,10.40
2022-09-24T04:30:39.967Z,10.40
2022-09-24T04:33:07.787Z,10.30
2022-09-24T04:35:38.780Z,10.30
2022-09-24T04:38:07.028Z,10.20
2022-09-24T04:40:34.351Z,10.10
2022-09-24T04:43:03.375Z,10.00
2022-09-24T04:45:30.875Z,10.00
2022-09-24T04:47:58.360Z,9.90
2022-09-24T04:50:29.063Z,9.80
2022-09-24T04:52:56.463Z,9.80
2022-09-24T04:55:24.213Z,9.70
2022-09-24T04:57:51.861Z,9.70
2022-09-24T05:00:21.258Z,9.60
2022-09-24T05:02:55.618Z,9.60
2022-09-24T05:05:23.420Z,9.60
2022-09-24T05:07:51.596Z,9.60
2022-09-24T05:10:19.364Z,9.50
2022-09-24T05:12:46.658Z,9.60
2022-09-24T05:15:13.891Z,9.60
2022-09-24T05:17:41.277Z,9.60
2022-09-24T05:20:11.343Z,9.70
2022-09-24T05:22:46.528Z,9.70
2022-09-24T05:25:15.090Z,9.70
2022-09-24T05:27:53.777Z,9.70
2022-09-24T05:30:22.783Z,9.70
2022-09-24T05:32:52.398Z,9.70
2022-09-24T05:35:24.214Z,9.70
2022-09-24T05:37:53.832Z,9.80
2022-09-24T05:40:41.136Z,9.80
2022-09-24T05:43:08.688Z,9.90
2022-09-24T05:45:35.966Z,9.90
2022-09-24T05:48:03.408Z,10.00
2022-09-24T05:50:31.072Z,10.10
2022-09-24T05:52:58.677Z,10.10
2022-09-24T05:55:30.026Z,10.10
2022-09-24T05:58:10.871Z,10.10
2022-09-24T06:00:38.197Z,10.20
2022-09-24T06:03:16.834Z,10.20
2022-09-24T06:05:51.865Z,10.30
2022-09-24T06:08:21.093Z,10.30
2022-09-24T06:10:48.895Z,10.40
2022-09-24T06:13:21.181Z,10.50
2022-09-24T06:15:48.473Z,10.50
2022-09-24T06:18:16.055Z,10.50
2022-09-24T06:20:43.597Z,10.50
2022-09-24T06:23:11.058Z,10.50
2022-09-24T06:25:38.259Z,10.60
2022-09-24T06:28:05.501Z,10.60
2022-09-24T06:30:38.573Z,10.70
2022-09-24T06:33:08.824Z,10.80
2022-09-24T06:35:37.897Z,10.80
2022-09-24T06:38:06.515Z,10.90
2022-09-24T06:40:37.320Z,11.00
2022-09-24T06:43:09.803Z,11.10
2022-09-24T06:45:37.461Z,11.20
2022-09-24T06:48:05.991Z,11.30
2022-09-24T06:50:34.735Z,11.40
2022-09-24T06:53:06.760Z,11.60
2022-09-24T06:55:34.628Z,11.70
2022-09-24T06:58:06.008Z,11.80
2022-09-24T07:00:34.506Z,12.00
2022-09-24T07:03:01.991Z,12.20
2022-09-24T07:05:29.287Z,12.30
2022-09-24T07:07:57.149Z,12.40
2022-09-24T07:10:25.391Z,12.60
2022-09-24T07:12:52.641Z,12.80
2022-09-24T07:15:20.246Z,13.00
2022-09-24T07:17:47.679Z,13.30
2022-09-24T07:20:14.978Z,13.40
2022-09-24T07:22:43.266Z,13.60
2022-09-24T07:25:12.115Z,13.80
2022-09-24T07:27:39.619Z,13.80
2022-09-24T07:30:09.822Z,13.80
2022-09-24T07:32:36.985Z,13.90
2022-09-24T07:35:04.902Z,13.90
2022-09-24T07:37:33.329Z,13.90
2022-09-24T07:40:01.016Z,14.00
2022-09-24T07:42:29.268Z,14.00
2022-09-24T07:45:01.180Z,14.10
2022-09-24T07:47:28.950Z,14.10
2022-09-24T07:49:56.331Z,14.30
2022-09-24T07:52:23.989Z,14.40
2022-09-24T07:54:52.416Z,14.50
2022-09-24T07:57:19.926Z,14.60
2022-09-24T07:59:49.503Z,14.70
2022-09-24T08:02:19.104Z,14.80
2022-09-24T08:04:46.729Z,14.90
2022-09-24T08:07:14.326Z,15.20
2022-09-24T08:09:41.819Z,15.20
2022-09-24T08:12:10.370Z,15.40
2022-09-24T08:14:38.362Z,15.60
2022-09-24T08:17:05.655Z,15.80
2022-09-24T08:19:33.393Z,15.90
2022-09-24T08:22:00.841Z,16.00
2022-09-24T08:24:29.076Z,16.20
2022-09-24T08:26:56.328Z,16.30
2022-09-24T08:29:23.584Z,16.50
2022-09-24T08:31:50.742Z,16.50
2022-09-24T08:34:19.223Z,16.60
2022-09-24T08:36:46.808Z,16.60
2022-09-24T08:39:15.427Z,16.40
2022-09-24T08:41:56.100Z,16.30
2022-09-24T08:44:50.580Z,16.40
2022-09-24T08:47:43.203Z,16.60
2022-09-24T08:50:21.592Z,16.70
2022-09-24T08:53:02.718Z,16.80
2022-09-24T08:55:35.879Z,16.90
2022-09-24T08:58:09.180Z,17.10
2022-09-24T09:01:00.687Z,17.10
2022-09-24T09:03:40.537Z,17.20
2022-09-24T09:06:16.661Z,17.20
2022-09-24T09:09:12.092Z,17.50
2022-09-24T09:11:41.809Z,17.50
2022-09-24T09:14:17.871Z,17.50
2022-09-24T09:17:32.626Z,17.40
2022-09-24T09:20:03.714Z,17.60
2022-09-24T09:22:41.354Z,17.90
2022-09-24T09:25:28.551Z,18.00
2022-09-24T09:28:04.925Z,17.60
2022-09-24T09:30:43.739Z,18.10
2022-09-24T09:33:30.785Z,18.50
2022-09-24T09:36:18.656Z,18.60
2022-09-24T09:39:18.439Z,18.60
2022-09-24T09:41:58.282Z,18.50
2022-09-24T09:44:29.066Z,18.70
2022-09-24T09:47:36.165Z,19.10
2022-09-24T09:50:35.941Z,19.10
2022-09-24T09:53:05.606Z,19.20
2022-09-24T09:55:36.390Z,19.40
2022-09-24T09:58:15.982Z,19.60
2022-09-24T10:00:44.049Z,19.70
2022-09-24T10:03:31.847Z,19.60
2022-09-24T10:06:05.286Z,19.60
2022-09-24T10:08:33.403Z,19.30
2022-09-24T10:11:03.018Z,19.10
2022-09-24T10:13:33.554Z,18.90
2022-09-24T10:16:08.661Z,19.00
2022-09-24T10:18:49.461Z,18.70
2022-09-24T10:21:35.241Z,18.90
2022-09-24T10:24:07.328Z,19.10
2022-09-24T10:26:45.288Z,19.10
2022-09-24T10:29:41.479Z,19.20
2022-09-24T10:32:26.031Z,19.20
2022-09-24T10:35:18.819Z,19.20
2022-09-24T10:37:58.375Z,19.00
2022-09-24T10:40:31.704Z,19.10
2022-09-24T10:43:02.893Z,18.90
2022-09-24T10:45:51.341Z,18.70
2022-09-24T10:48:27.041Z,18.60
2022-09-24T10:51:16.769Z,18.70
2022-09-24T10:54:21.686Z,18.70
2022-09-24T10:56:53.897Z,18.60
2022-09-24T11:00:00.003Z,18.70
2022-09-24T11:02:48.702Z,18.50
2022-09-24T11:05:24.601Z,18.60
2022-09-24T11:08:03.742Z,18.90
2022-09-24T11:10:51.491Z,19.00
2022-09-24T11:13:39.880Z,18.70
2022-09-24T11:16:26.065Z,18.30
2022-09-24T11:19:03.781Z,19.10
2022-09-24T11:21:58.654Z,19.70
2022-09-24T11:25:00.082Z,20.10
2022-09-24T11:28:03.400Z,19.80
2022-09-24T11:30:48.873Z,19.90
2022-09-24T11:33:37.362Z,20.60
2022-09-24T11:36:20.972Z,20.70
2022-09-24T11:38:48.174Z,21.10
2022-09-24T11:41:21.516Z,21.40
2022-09-24T11:44:03.832Z,21.60
2022-09-24T11:46:34.437Z,21.40
2022-09-24T11:49:35.775Z,21.10
2022-09-24T11:52:40.795Z,21.10
2022-09-24T11:55:23.054Z,20.60
2022-09-24T11:57:57.709Z,21.00
2022-09-24T12:00:31.466Z,20.90
2022-09-24T12:03:08.459Z,21.10
2022-09-24T12:05:52.567Z,21.20
2022-09-24T12:08:29.392Z,21.00
2022-09-24T12:10:56.547Z,20.90
2022-09-24T12:13:45.633Z,21.00
2022-09-24T12:16:14.708Z,20.80
2022-09-24T12:18:48.225Z,20.90
2022-09-24T12:21:29.579Z,20.90
2022-09-24T12:24:03.476Z,21.20
2022-09-24T12:26:35.330Z,21.30
2022-09-24T12:29:27.273Z,21.90
2022-09-24T12:32:36.333Z,22.20
2022-09-24T12:35:15.114Z,22.40
2022-09-24T12:37:45.563Z,22.10
2022-09-24T12:40:12.887Z,21.80
2022-09-24T12:42:45.415Z,21.90
2022-09-24T12:45:17.338Z,22.10
2022-09-24T12:48:00.117Z,22.00
2022-09-24T12:50:34.577Z,22.30
2022-09-24T12:53:02.183Z,22.50
2022-09-24T12:55:32.270Z,21.90
2022-09-24T12:58:28.222Z,21.50
2022-09-24T13:01:13.166Z,21.60
2022-09-24T13:03:46.966Z,21.60
2022-09-24T13:06:38.123Z,21.00
2022-09-24T13:09:26.032Z,20.80
2022-09-24T13:12:19.130Z,21.30
2022-09-24T13:15:01.444Z,21.80
2022-09-24T13:17:33.504Z,22.40
2022-09-24T13:20:15.834Z,22.40
2022-09-24T13:22:43.364Z,22.40
2022-09-24T13:25:10.722Z,22.40
2022-09-24T13:27:41.492Z,22.10
2022-09-24T13:30:36.076Z,21.50
2022-09-24T13:33:17.628Z,21.40
2022-09-24T13:36:12.675Z,21.10
2022-09-24T13:39:04.013Z,21.00
2022-09-24T13:42:02.120Z,21.10
2022-09-24T13:44:52.650Z,21.00
2022-09-24T13:47:38.548Z,20.80
2022-09-24T13:50:27.150Z,21.00
2022-09-24T13:53:07.798Z,21.70
2022-09-24T13:55:49.973Z,22.90
2022-09-24T13:58:34.500Z,25.30
2022-09-24T14:01:13.084Z,27.30
2022-09-24T14:03:41.887Z,29.10
2022-09-24T14:06:14.613Z,30.50
2022-09-24T14:08:44.753Z,28.50
2022-09-24T14:11:18.835Z,26.90
2022-09-24T14:13:46.306Z,26.80
2022-09-24T14:16:21.751Z,27.10
2022-09-24T14:18:49.286Z,27.40
2022-09-24T14:21:24.180Z,26.40
2022-09-24T14:24:01.534Z,26.40
2022-09-24T14:26:38.552Z,25.60
2022-09-24T14:29:14.609Z,24.90
2022-09-24T14:31:51.111Z,24.60
2022-09-24T14:34:28.130Z,24.70
2022-09-24T14:36:58.877Z,25.70
2022-09-24T14:39:29.326Z,26.90
2022-09-24T14:41:59.314Z,29.60
2022-09-24T14:44:29.049Z,30.20
2022-09-24T14:46:58.776Z,30.80
2022-09-24T14:49:32.659Z,30.30
2022-09-24T14:52:02.569Z,28.20
2022-09-24T14:54:40.588Z,28.30
2022-09-24T14:57:19.741Z,28.20
2022-09-24T14:59:47.425Z,27.50
2022-09-24T15:02:17.703Z,26.40
2022-09-24T15:04:48.654Z,25.30
2022-09-24T15:07:18.600Z,24.40
2022-09-24T15:09:53.953Z,22.80
2022-09-24T15:12:42.762Z,22.10
2022-09-24T15:15:18.362Z,21.70
2022-09-24T15:17:47.606Z,21.30
2022-09-24T15:20:15.006Z,20.90
2022-09-24T15:22:42.236Z,20.60
2022-09-24T15:25:10.518Z,20.50
2022-09-24T15:27:39.207Z,20.00
2022-09-24T15:30:08.126Z,19.50
2022-09-24T15:32:36.119Z,19.30
2022-09-24T15:35:09.752Z,19.00
2022-09-24T15:37:40.413Z,18.80
2022-09-24T15:40:23.225Z,18.60
2022-09-24T15:42:51.446Z,18.40
2022-09-24T15:45:24.345Z,18.40
2022-09-24T15:47:53.060Z,18.30
2022-09-24T15:50:22.300Z,18.30
2022-09-24T15:52:58.662Z,18.30
2022-09-24T15:55:26.159Z,18.30
2022-09-24T15:57:54.066Z,18.20
2022-09-24T16:00:24.365Z,18.10
2022-09-24T16:02:55.241Z,18.00
2022-09-24T16:05:23.468Z,17.90
2022-09-24T16:07:50.681Z,17.80
2022-09-24T16:10:18.425Z,17.70
2022-09-24T16:12:45.748Z,17.60
2022-09-24T16:15:15.516Z,17.50
2022-09-24T16:17:43.171Z,17.30
2022-09-24T16:20:10.833Z,17.20
2022-09-24T16:22:38.637Z,17.20
2022-09-24T16:25:06.965Z,17.10
2022-09-24T16:27:35.642Z,17.00
2022-09-24T16:30:05.407Z,17.00
2022-09-24T16:32:32.712Z,16.90
2022-09-24T16:35:00.094Z,16.80
2022-09-24T16:37:27.438Z,16.80
2022-09-24T16:39:55.291Z,16.70
2022-09-24T16:42:26.339Z,16.70
2022-09-24T16:44:53.624Z,16.60
2022-09-24T16:47:21.176Z,16.50
2022-09-24T16:49:48.492Z,16.50
2022-09-24T16:52:15.699Z,16.40
2022-09-24T16:54:42.960Z,16.40
2022-09-24T16:57:10.250Z,16.40
2022-09-24T16:59:37.519Z,16.30
2022-09-24T17:02:04.876Z,16.40
2022-09-24T17:04:34.282Z,16.30
2022-09-24T17:07:01.743Z,16.30
2022-09-24T17:09:47.743Z,16.30
2022-09-24T17:12:15.015Z,16.20
2022-09-24T17:14:42.203Z,16.20
2022-09-24T17:17:09.574Z,16.30
2022-09-24T17:19:36.809Z,16.30
2022-09-24T17:22:04.016Z,16.20
2022-09-24T17:24:31.961Z,16.20
2022-09-24T17:26:59.222Z,16.20
2022-09-24T17:29:31.247Z,16.20
2022-09-24T17:31:59.488Z,16.20
2022-09-24T17:34:27.032Z,16.10
2022-09-24T17:36:55.548Z,16.10
2022-09-24T17:39:23.047Z,16.00
2022-09-24T17:41:50.364Z,16.00
2022-09-24T17:44:18.070Z,15.90
2022-09-24T17:46:47.039Z,15.90
2022-09-24T17:49:15.775Z,15.80
2022-09-24T17:51:44.329Z,15.80
2022-09-24T17:54:14.419Z,15.70
2022-09-24T17:56:42.241Z,15.60
2022-09-24T17:59:11.978Z,15.60
2022-09-24T18:01:41.281Z,15.60
2022-09-24T18:04:12.726Z,15.60
2022-09-24T18:06:41.434Z,15.50
2022-09-24T18:09:10.846Z,15.50
2022-09-24T18:11:47.141Z,15.50
2022-09-24T18:14:20.279Z,15.40
2022-09-24T18:16:49.466Z,15.40
2022-09-24T18:19:17.613Z,15.40
2022-09-24T18:21:46.423Z,15.40
2022-09-24T18:24:14.683Z,15.30
2022-09-24T18:26:42.128Z,15.20
2022-09-24T18:29:15.812Z,15.20
2022-09-24T18:31:44.894Z,15.10
2022-09-24T18:34:14.864Z,15.10
2022-09-24T18:36:44.107Z,15.00
2022-09-24T18:39:13.845Z,15.00
2022-09-24T18:41:42.181Z,15.00
2022-09-24T18:44:10.642Z,14.80
2022-09-24T18:46:37.957Z,14.80
2022-09-24T18:49:06.534Z,14.70
2022-09-24T18:51:37.358Z,14.60
2022-09-24T18:54:12.632Z,14.60
2022-09-24T18:56:40.517Z,14.60
2022-09-24T18:59:19.846Z,14.50
2022-09-24T19:01:48.743Z,14.50
2022-09-24T19:04:17.205Z,14.50
2022-09-24T19:06:48.182Z,14.50
2022-09-24T19:09:17.580Z,14.50
2022-09-24T19:11:45.717Z,14.50
2022-09-24T19:14:18.153Z,14.50
2022-09-24T19:16:46.015Z,14.50
2022-09-24T19:19:13.320Z,14.40
2022-09-24T19:21:42.256Z,14.40
2022-09-24T19:24:10.052Z,14.40
2022-09-24T19:26:38.062Z,14.40
2022-09-24T19:29:05.817Z,14.30
2022-09-24T19:31:51.600Z,14.30
2022-09-24T19:34:20.803Z,14.30
2022-09-24T19:36:48.131Z,14.30
2022-09-24T19:39:16.895Z,14.30
2022-09-24T19:41:44.620Z,14.30
2022-09-24T19:44:12.598Z,14.30
2022-09-24T19:46:41.173Z,14.30
2022-09-24T19:49:09.012Z,14.20
2022-09-24T19:51:36.925Z,14.30
2022-09-24T19:54:07.078Z,14.30
2022-09-24T19:56:36.067Z,14.20
2022-09-24T19:59:04.698Z,14.20
2022-09-24T20:01:33.587Z,14.20
2022-09-24T20:04:05.225Z,14.20
2022-09-24T20:06:34.061Z,14.10
2022-09-24T20:09:01.727Z,14.20
2022-09-24T20:11:32.630Z,14.20
2022-09-24T20:14:01.738Z,14.20
2022-09-24T20:16:32.734Z,14.20
2022-09-24T20:19:02.078Z,14.10
2022-09-24T20:21:34.832Z,14.20
2022-09-24T20:24:05.675Z,14.10
2022-09-24T20:26:52.032Z,14.20
2022-09-24T20:29:20.291Z,14.20
2022-09-24T20:31:52.970Z,14.10
2022-09-24T20:34:34.602Z,14.20
2022-09-24T20:37:04.498Z,14.10
2022-09-24T20:39:32.395Z,14.20
2022-09-24T20:42:04.045Z,14.20
2022-09-24T20:44:34.009Z,14.10
2022-09-24T20:47:01.538Z,14.10
2022-09-24T20:49:29.991Z,14.10
2022-09-24T20:51:58.125Z,14.00
2022-09-24T20:54:28.352Z,14.10
2022-09-24T20:56:56.138Z,14.10
2022-09-24T20:59:25.685Z,14.10
2022-09-24T21:01:53.894Z,14.00
2022-09-24T21:04:22.565Z,14.00
2022-09-24T21:06:50.497Z,14.00
2022-09-24T21:09:18.031Z,14.00
2022-09-24T21:11:45.338Z,14.00
2022-09-24T21:14:12.866Z,14.00
2022-09-24T21:16:40.670Z,14.00
2022-09-24T21:19:08.146Z,14.00
2022-09-24T21:21:39.150Z,14.00
2022-09-24T21:24:10.295Z,14.00
2022-09-24T21:26:40.898Z,13.90
2022-09-24T21:29:16.844Z,14.00
2022-09-24T21:31:46.338Z,14.00
2022-09-24T21:34:15.766Z,14.00
2022-09-24T21:36:45.928Z,14.00
2022-09-24T21:39:17.732Z,14.00
2022-09-24T21:41:47.186Z,13.90
2022-09-24T21:44:14.635Z,13.90
2022-09-24T21:46:43.968Z,13.90
2022-09-24T21:49:12.142Z,13.90
2022-09-24T21:51:39.820Z,13.90
2022-09-24T21:54:09.506Z,13.90
2022-09-24T21:56:37.544Z,13.90
2022-09-24T21:59:27.885Z,13.90
2022-09-24T22:01:55.958Z,13.90
2022-09-24T22:04:23.289Z,13.90
2022-09-24T22:06:51.291Z,13.90
2022-09-24T22:09:18.949Z,13.90
2022-09-24T22:11:47.125Z,14.00
2022-09-24T22:14:15.217Z,13.90
2022-09-24T22:16:42.768Z,13.90
2022-09-24T22:19:10.436Z,13.90
2022-09-24T22:21:37.937Z,13.90
2022-09-24T22:24:05.769Z,13.90
2022-09-24T22:26:33.615Z,13.90
2022-09-24T22:29:02.187Z,13.90
2022-09-24T22:31:29.599Z,13.90
2022-09-24T22:34:15.285Z,14.00
2022-09-24T22:36:43.033Z,13.90
2022-09-24T22:39:11.199Z,13.90
2022-09-24T22:41:40.267Z,13.90
2022-09-24T22:44:07.731Z,13.90
2022-09-24T22:46:36.533Z,13.80
2022-09-24T22:49:06.012Z,13.80
2022-09-24T22:51:34.087Z,13.80
2022-09-24T22:54:01.676Z,13.80
2022-09-24T22:56:30.203Z,13.80
2022-09-24T22:59:00.018Z,13.70
2022-09-24T23:01:42.149Z,13.80
2022-09-24T23:04:10.663Z,13.70
2022-09-24T23:06:38.362Z,13.70
2022-09-24T23:09:06.259Z,13.70
2022-09-24T23:11:35.922Z,13.70
2022-09-24T23:14:11.235Z,13.70
2022-09-24T23:16:39.135Z,13.70
2022-09-24T23:19:13.247Z,13.70
2022-09-24T23:21:40.913Z,13.70
2022-09-24T23:24:19.344Z,13.70
2022-09-24T23:26:47.290Z,13.70
2022-09-24T23:29:15.231Z,13.70
2022-09-24T23:31:42.797Z,13.70
2022-09-24T23:34:13.465Z,13.70
2022-09-24T23:36:41.180Z,13.70
2022-09-24T23:39:08.437Z,13.70
2022-09-24T23:41:35.706Z,13.70
2022-09-24T23:44:03.505Z,13.70
2022-09-24T23:46:30.837Z,13.70
2022-09-24T23:48:58.107Z,13.70
2022-09-24T23:51:28.517Z,13.70
2022-09-24T23:53:55.823Z,13.70
2022-09-24T23:56:23.303Z,13.70
2022-09-24T23:58:50.933Z,13.70
